Time;durP1;ratioP1;P1;durP2;ratioP2;P2;SDS_P1;SDS_P2;PMS_P1;PMS_P2;Temp;Humidity;BMP_temperature;BMP_pressure;BME280_temperature;BME280_humidity;BME280_pressure;Samples;Min_cycle;Max_cycle;Signal;HPM_P1;HPM_P2
2023/09/01 00:00:15;;;;;;;;;;;;;;;;;;1035436;28;3067;-54
2023/09/01 00:01:06;;;;;;;;;;;;;;;;;;1044380;28;4306;-51
2023/09/01 00:01:40;;;;;;;;;;;;;;;;;;1044951;28;4721;-57
2023/09/01 00:02:13;;;;;;;;;;;;;;;;;;1041602;28;1733;-56
2023/09/01 00:02:43;;;;;;;;;;;;;;;;;;1034085;28;4226;-52
2023/09/01 00:03:13;;;;;;;;;;;;;;;;;;1034073;28;1756;-55
2023/09/01 00:03:44;;;;;;;;;;;;;;;;;;1032225;28;4153;-55
2023/09/01 00:04:14;;;;;;;;;;;;;;;;;;1038022;28;1600;-57
2023/09/01 00:04:44;;;;;;;;;;;;;;;;;;1037509;28;3875;-51
2023/09/01 00:05:15;;;;;;;;;;;;;;;;;;1038872;28;1606;-56
2023/09/01 00:05:45;;;;;;;;;;;;;;;;;;1036478;28;4096;-57
2023/09/01 00:06:15;;;;;;;;;;;;;;;;;;1038884;28;3010;-56
2023/09/01 00:06:45;;;;;;;;;;;;;;;;;;1036909;28;3887;-57
2023/09/01 00:07:16;;;;;;;;;;;;;;;;;;1036848;28;3514;-55
2023/09/01 00:07:46;;;;;;;;;;;;;;;;;;1037253;28;3987;-50
2023/09/01 00:08:16;;;;;;;;;;;;;;;;;;1038626;28;3035;-51
2023/09/01 00:08:46;;;;;;;;;;;;;;;;;;1037341;28;3781;-54
2023/09/01 00:09:17;;;;;;;;;;;;;;;;;;1037850;28;3062;-54
2023/09/01 00:09:49;;;;;;;;;;;;;;;;;;1037430;28;4358;-54
2023/09/01 00:10:19;;;;;;;;;;;;;;;;;;1038323;28;2000;-55
2023/09/01 00:10:50;;;;;;;;;;;;;;;;;;1045658;28;3967;-50
2023/09/01 00:11:20;;;;;;;;;;;;;;;;;;1045578;28;3115;-54
2023/09/01 00:11:50;;;;;;;;;;;;;;;;;;1045377;28;3865;-54
2023/09/01 00:12:21;;;;;;;;;;;;;;;;;;1044614;28;3128;-47
2023/09/01 00:12:51;;;;;;;;;;;;;;;;;;1038253;28;3847;-54
2023/09/01 00:13:21;;;;;;;;;;;;;;;;;;1044946;28;3038;-48
2023/09/01 00:13:51;;;;;;;;;;;;;;;;;;1045440;28;4041;-55
2023/09/01 00:14:22;;;;;;;;;;;;;;;;;;1044169;28;3243;-58
2023/09/01 00:14:53;;;;;;;;;;;;;;;;;;1046098;28;3878;-55
2023/09/01 00:15:23;;;;;;;;;;;;;;;;;;1035985;28;3145;-52
2023/09/01 00:15:53;;;;;;;;;;;;;;;;;;1038005;28;3888;-57
2023/09/01 00:16:23;;;;;;;;;;;;;;;;;;1037452;28;4035;-55
2023/09/01 00:16:54;;;;;;;;;;;;;;;;;;1046257;28;2058;-57
2023/09/01 00:17:24;;;;;;;;;;;;;;;;;;1044795;28;4163;-53
2023/09/01 00:17:54;;;;;;;;;;;;;;;;;;1045270;28;2907;-52
2023/09/01 00:18:25;;;;;;;;;;;;;;;;;;1045964;28;3877;-52
2023/09/01 00:18:55;;;;;;;;;;;;;;;;;;1038295;28;3487;-55
2023/09/01 00:19:25;;;;;;;;;;;;;;;;;;1038277;28;3788;-53
2023/09/01 00:19:55;;;;;;;;;;;;;;;;;;1035241;28;3266;-52
2023/09/01 00:20:26;;;;;;;;;;;;;;;;;;1037152;28;4107;-55
2023/09/01 00:20:57;;;;;;;;;;;;;;;;;;1037195;28;3140;-53
2023/09/01 00:21:27;;;;;;;;;;;;;;;;;;1037406;28;4183;-58
2023/09/01 00:21:58;;;;;;;;;;;;;;;;;;1036506;28;3014;-52
2023/09/01 00:22:28;;;;;;;;;;;;;;;;;;1037059;28;3769;-56
2023/09/01 00:22:58;;;;;;;;;;;;;;;;;;1038046;28;1950;-54
2023/09/01 00:23:28;;;;;;;;;;;;;;;;;;1037851;28;4047;-56
2023/09/01 00:23:59;;;;;;;;;;;;;;;;;;1037518;28;2953;-55
2023/09/01 00:24:31;;;;;;;;;;;;;;;;;;1036509;28;4036;-54
2023/09/01 00:25:03;;;;;;;;;;;;;;;;;;1037333;28;2963;-51
2023/09/01 00:25:33;;;;;;;;;;;;;;;;;;1036753;28;4108;-52
2023/09/01 00:26:03;;;;;;;;;;;;;;;;;;1038644;28;1684;-54
2023/09/01 00:26:33;;;;;;;;;;;;;;;;;;1038008;28;4223;-52
2023/09/01 00:27:04;;;;;;;;;;;;;;;;;;1037621;28;3412;-55
2023/09/01 00:27:34;;;;;;;;;;;;;;;;;;1036110;28;3901;-53
2023/09/01 00:28:04;;;;;;;;;;;;;;;;;;1038134;28;2895;-54
2023/09/01 00:28:35;;;;;;;;;;;;;;;;;;1037763;28;3795;-56
2023/09/01 00:29:05;;;;;;;;;;;;;;;;;;1039189;28;1681;-52
2023/09/01 00:29:36;;;;;;;;;;;;;;;;;;1037027;28;3961;-54
2023/09/01 00:30:07;;;;;;;;;;;;;;;;;;1036140;28;3014;-51
2023/09/01 00:30:49;;;;;;;;;;;;;;;;;;1037399;28;4072;-53
2023/09/01 00:31:20;;;;;;;;;;;;;;;;;;1038672;28;1706;-55
2023/09/01 00:31:51;;;;;;;;;;;;;;;;;;1037181;28;4027;-51
2023/09/01 00:32:21;;;;;;;;;;;;;;;;;;1037666;28;3089;-51
2023/09/01 00:32:51;;;;;;;;;;;;;;;;;;1043923;28;3813;-57
2023/09/01 00:33:24;;;;;;;;;;;;;;;;;;1045375;28;3183;-52
2023/09/01 00:33:55;;;;;;;;;;;;;;;;;;1043844;28;4019;-52
2023/09/01 00:34:25;;;;;;;;;;;;;;;;;;1043654;28;3944;-57
2023/09/01 00:34:56;;;;;;;;;;;;;;;;;;1036676;28;3013;-50
2023/09/01 00:35:26;;;;;;;;;;;;;;;;;;1035641;28;3865;-51
2023/09/01 00:35:57;;;;;;;;;;;;;;;;;;1034444;28;3362;-57
2023/09/01 00:36:28;;;;;;;;;;;;;;;;;;1036281;28;4057;-54
2023/09/01 00:36:58;;;;;;;;;;;;;;;;;;1036126;28;3207;-52
2023/09/01 00:37:29;;;;;;;;;;;;;;;;;;1036837;28;4277;-56
2023/09/01 00:37:59;;;;;;;;;;;;;;;;;;1036447;28;2939;-54
2023/09/01 00:38:32;;;;;;;;;;;;;;;;;;1037818;28;4194;-55
2023/09/01 00:39:02;;;;;;;;;;;;;;;;;;1038256;28;3314;-54
2023/09/01 00:39:33;;;;;;;;;;;;;;;;;;1037280;28;3802;-53
2023/09/01 00:40:03;;;;;;;;;;;;;;;;;;1037820;28;2942;-52
2023/09/01 00:40:34;;;;;;;;;;;;;;;;;;1034260;28;3807;-55
2023/09/01 00:41:04;;;;;;;;;;;;;;;;;;1039119;28;1680;-52
2023/09/01 00:41:34;;;;;;;;;;;;;;;;;;1036541;28;4071;-52
2023/09/01 00:42:05;;;;;;;;;;;;;;;;;;1036379;28;3336;-58
2023/09/01 00:42:35;;;;;;;;;;;;;;;;;;1037642;28;4048;-51
2023/09/01 00:43:05;;;;;;;;;;;;;;;;;;1040045;28;3032;-54
2023/09/01 00:43:36;;;;;;;;;;;;;;;;;;1045348;28;3800;-51
2023/09/01 00:44:06;;;;;;;;;;;;;;;;;;1045027;28;2963;-57
2023/09/01 00:44:37;;;;;;;;;;;;;;;;;;1044974;28;3969;-57
2023/09/01 00:45:08;;;;;;;;;;;;;;;;;;1035944;28;3171;-52
2023/09/01 00:45:38;;;;;;;;;;;;;;;;;;1037563;28;3956;-55
2023/09/01 00:46:08;;;;;;;;;;;;;;;;;;1035884;28;3039;-50
2023/09/01 00:46:39;;;;;;;;;;;;;;;;;;1037813;28;3762;-52
2023/09/01 00:47:11;;;;;;;;;;;;;;;;;;1036989;28;2899;-49
2023/09/01 00:47:41;;;;;;;;;;;;;;;;;;1037109;28;4040;-54
2023/09/01 00:48:13;;;;;;;;;;;;;;;;;;1037912;28;3071;-57
2023/09/01 00:48:43;;;;;;;;;;;;;;;;;;1036684;28;3867;-52
2023/09/01 00:49:16;;;;;;;;;;;;;;;;;;1038764;28;3241;-55
2023/09/01 00:49:47;;;;;;;;;;;;;;;;;;1035483;28;3779;-50
2023/09/01 00:50:17;;;;;;;;;;;;;;;;;;1033838;28;3254;-51
2023/09/01 00:50:49;;;;;;;;;;;;;;;;;;1036189;28;3946;-56
2023/09/01 00:51:19;;;;;;;;;;;;;;;;;;1035676;28;3071;-53
2023/09/01 00:51:49;;;;;;;;;;;;;;;;;;1038656;28;4291;-55
2023/09/01 00:52:19;;;;;;;;;;;;;;;;;;1038271;28;1577;-51
2023/09/01 00:52:50;;;;;;;;;;;;;;;;;;1039228;28;3896;-53
2023/09/01 00:53:21;;;;;;;;;;;;;;;;;;1036079;28;3091;-55
2023/09/01 00:53:51;;;;;;;;;;;;;;;;;;1038408;28;3966;-53
2023/09/01 00:54:21;;;;;;;;;;;;;;;;;;1038050;28;1954;-51
2023/09/01 00:54:52;;;;;;;;;;;;;;;;;;1038412;28;3949;-56
2023/09/01 00:55:22;;;;;;;;;;;;;;;;;;1036128;28;3192;-52
2023/09/01 00:55:53;;;;;;;;;;;;;;;;;;1036451;28;3949;-55
2023/09/01 00:56:23;;;;;;;;;;;;;;;;;;1037555;28;3289;-53
2023/09/01 00:56:54;;;;;;;;;;;;;;;;;;1036543;28;4306;-52
2023/09/01 00:57:24;;;;;;;;;;;;;;;;;;1036946;28;3885;-52
2023/09/01 00:57:54;;;;;;;;;;;;;;;;;;1037458;28;2837;-52
2023/09/01 00:58:25;;;;;;;;;;;;;;;;;;1037807;28;3799;-57
2023/09/01 00:58:55;;;;;;;;;;;;;;;;;;1036959;28;3172;-55
2023/09/01 00:59:26;;;;;;;;;;;;;;;;;;1036815;28;3937;-54
2023/09/01 00:59:56;;;;;;;;;;;;;;;;;;1037583;28;2510;-53
2023/09/01 01:00:27;;;;;;;;;;;;;;;;;;1034633;28;4147;-51
2023/09/01 01:00:58;;;;;;;;;;;;;;;;;;1036522;28;2997;-51
2023/09/01 01:01:28;;;;;;;;;;;;;;;;;;1036847;28;3802;-57
2023/09/01 01:01:59;;;;;;;;;;;;;;;;;;1036436;28;3232;-53
2023/09/01 01:02:29;;;;;;;;;;;;;;;;;;1037174;28;3797;-52
2023/09/01 01:03:01;;;;;;;;;;;;;;;;;;1038437;28;1746;-51
2023/09/01 01:03:33;;;;;;;;;;;;;;;;;;1036357;28;4121;-57
2023/09/01 01:04:07;;;;;;;;;;;;;;;;;;1036829;28;2764;-54
2023/09/01 01:04:37;;;;;;;;;;;;;;;;;;1038257;28;3897;-54
2023/09/01 01:05:14;;;;;;;;;;;;;;;;;;1037212;28;3051;-56
2023/09/01 01:05:47;;;;;;;;;;;;;;;;;;1035821;28;4112;-53
2023/09/01 01:06:24;;;;;;;;;;;;;;;;;;1036952;28;3430;-57
2023/09/01 01:07:14;;;;;;;;;;;;;;;;;;1036677;28;3804;-55
2023/09/01 01:07:55;;;;;;;;;;;;;;;;;;1038189;28;3997;-49
2023/09/01 01:08:34;;;;;;;;;;;;;;;;;;1034700;28;3975;-52
2023/09/01 01:09:31;;;;;;;;;;;;;;;;;;1036578;28;3554;-54
2023/09/01 01:10:10;;;;;;;;;;;;;;;;;;1032653;28;3944;-56
2023/09/01 01:10:46;;;;;;;;;;;;;;;;;;1032679;28;4101;-54
2023/09/01 01:11:39;;;;;;;;;;;;;;;;;;1038362;28;3432;-55
2023/09/01 01:12:20;;;;;;;;;;;;;;;;;;1026175;28;4187;-53
2023/09/01 01:12:55;;;;;;;;;;;;;;;;;;1024076;28;3917;-53
2023/09/01 01:13:30;;;;;;;;;;;;;;;;;;1033763;28;4049;-52
2023/09/01 01:14:04;;;;;;;;;;;;;;;;;;1035939;28;3066;-51
2023/09/01 01:14:37;;;;;;;;;;;;;;;;;;1039281;28;4078;-56
2023/09/01 01:15:09;;;;;;;;;;;;;;;;;;1039600;28;3473;-49
2023/09/01 01:15:39;;;;;;;;;;;;;;;;;;1039855;28;4047;-54
2023/09/01 01:16:10;;;;;;;;;;;;;;;;;;1042684;28;1791;-53
2023/09/01 01:16:41;;;;;;;;;;;;;;;;;;1041659;28;4105;-53
2023/09/01 01:17:12;;;;;;;;;;;;;;;;;;1040069;28;3090;-55
2023/09/01 01:17:43;;;;;;;;;;;;;;;;;;1042321;28;3952;-55
2023/09/01 01:18:16;;;;;;;;;;;;;;;;;;1042125;28;3072;-55
2023/09/01 01:18:48;;;;;;;;;;;;;;;;;;1039870;28;4014;-54
2023/09/01 01:19:41;;;;;;;;;;;;;;;;;;1041930;28;1426;-56
2023/09/01 01:20:22;;;;;;;;;;;;;;;;;;1040568;28;3903;-54
2023/09/01 01:21:06;;;;;;;;;;;;;;;;;;1043303;28;3995;-51
2023/09/01 01:21:36;;;;;;;;;;;;;;;;;;1044202;28;4040;-49
2023/09/01 01:22:07;;;;;;;;;;;;;;;;;;1042683;28;1699;-49
2023/09/01 01:22:41;;;;;;;;;;;;;;;;;;1040642;28;3865;-51
2023/09/01 01:23:14;;;;;;;;;;;;;;;;;;1041934;28;2747;-50
2023/09/01 01:23:45;;;;;;;;;;;;;;;;;;1040396;28;4265;-55
2023/09/01 01:24:15;;;;;;;;;;;;;;;;;;1042227;28;3081;-54
2023/09/01 01:24:45;;;;;;;;;;;;;;;;;;1041368;28;3939;-54
2023/09/01 01:25:16;;;;;;;;;;;;;;;;;;1041803;28;3170;-53
2023/09/01 01:25:47;;;;;;;;;;;;;;;;;;1039391;28;3874;-53
2023/09/01 01:26:18;;;;;;;;;;;;;;;;;;1041410;28;3636;-55
2023/09/01 01:26:49;;;;;;;;;;;;;;;;;;1041226;28;4004;-58
2023/09/01 01:27:19;;;;;;;;;;;;;;;;;;1040963;28;3301;-52
2023/09/01 01:27:49;;;;;;;;;;;;;;;;;;1041795;28;3728;-54
2023/09/01 01:28:20;;;;;;;;;;;;;;;;;;1039162;28;3320;-53
2023/09/01 01:28:50;;;;;;;;;;;;;;;;;;1040818;28;3934;-50
2023/09/01 01:29:20;;;;;;;;;;;;;;;;;;1040373;28;3107;-54
2023/09/01 01:29:51;;;;;;;;;;;;;;;;;;1040941;28;4229;-52
2023/09/01 01:30:21;;;;;;;;;;;;;;;;;;1040495;28;2996;-52
2023/09/01 01:30:51;;;;;;;;;;;;;;;;;;1041398;28;3939;-52
2023/09/01 01:31:21;;;;;;;;;;;;;;;;;;1040629;28;3227;-52
2023/09/01 01:31:55;;;;;;;;;;;;;;;;;;1041170;28;3925;-52
2023/09/01 01:32:26;;;;;;;;;;;;;;;;;;1040818;28;3844;-53
2023/09/01 01:32:56;;;;;;;;;;;;;;;;;;1041363;28;3082;-53
2023/09/01 01:33:47;;;;;;;;;;;;;;;;;;1041010;28;3970;-54
2023/09/01 01:34:21;;;;;;;;;;;;;;;;;;1041243;28;1914;-53
2023/09/01 01:35:04;;;;;;;;;;;;;;;;;;1040465;28;3690;-54
2023/09/01 01:35:40;;;;;;;;;;;;;;;;;;1039649;28;4002;-54
2023/09/01 01:36:16;;;;;;;;;;;;;;;;;;1042265;28;3018;-55
2023/09/01 01:37:06;;;;;;;;;;;;;;;;;;1041277;28;3832;-57
2023/09/01 01:37:40;;;;;;;;;;;;;;;;;;1039145;28;3948;-50
2023/09/01 01:38:20;;;;;;;;;;;;;;;;;;1039331;28;3063;-55
2023/09/01 01:39:05;;;;;;;;;;;;;;;;;;1039679;28;3971;-53
2023/09/01 01:39:37;;;;;;;;;;;;;;;;;;1041606;28;3779;-52
2023/09/01 01:40:08;;;;;;;;;;;;;;;;;;1043191;28;3082;-52
2023/09/01 01:40:39;;;;;;;;;;;;;;;;;;1041464;28;4045;-53
2023/09/01 01:41:14;;;;;;;;;;;;;;;;;;1042587;28;3148;-51
2023/09/01 01:41:52;;;;;;;;;;;;;;;;;;1042259;28;4029;-53
2023/09/01 01:42:24;;;;;;;;;;;;;;;;;;1042320;28;3108;-49
2023/09/01 01:42:55;;;;;;;;;;;;;;;;;;1042136;28;4076;-55
2023/09/01 01:43:26;;;;;;;;;;;;;;;;;;1043319;28;4003;-54
2023/09/01 01:43:58;;;;;;;;;;;;;;;;;;1043190;28;1595;-52
2023/09/01 01:44:30;;;;;;;;;;;;;;;;;;1043008;28;4414;-55
2023/09/01 01:45:02;;;;;;;;;;;;;;;;;;1040811;28;3058;-56
2023/09/01 01:45:34;;;;;;;;;;;;;;;;;;1041062;28;3872;-54
2023/09/01 01:46:05;;;;;;;;;;;;;;;;;;1043553;28;3093;-52
2023/09/01 01:46:36;;;;;;;;;;;;;;;;;;1040733;28;4079;-52
2023/09/01 01:47:11;;;;;;;;;;;;;;;;;;1042434;28;3064;-54
2023/09/01 01:47:41;;;;;;;;;;;;;;;;;;1042035;28;4022;-52
2023/09/01 01:48:11;;;;;;;;;;;;;;;;;;1042533;28;3003;-53
2023/09/01 01:48:41;;;;;;;;;;;;;;;;;;1040789;28;4012;-57
2023/09/01 01:49:14;;;;;;;;;;;;;;;;;;1041434;28;3176;-52
2023/09/01 01:49:45;;;;;;;;;;;;;;;;;;1040229;28;4033;-55
2023/09/01 01:50:16;;;;;;;;;;;;;;;;;;1042011;28;2989;-58
2023/09/01 01:50:46;;;;;;;;;;;;;;;;;;1041826;28;3972;-49
2023/09/01 01:51:16;;;;;;;;;;;;;;;;;;1042628;28;2039;-52
2023/09/01 01:51:46;;;;;;;;;;;;;;;;;;1041848;28;4038;-56
2023/09/01 01:52:17;;;;;;;;;;;;;;;;;;1043329;28;3139;-51
2023/09/01 01:52:47;;;;;;;;;;;;;;;;;;1039986;28;4347;-55
2023/09/01 01:53:17;;;;;;;;;;;;;;;;;;1041500;28;3605;-55
2023/09/01 01:53:47;;;;;;;;;;;;;;;;;;1042252;28;3861;-53
2023/09/01 01:54:18;;;;;;;;;;;;;;;;;;1043209;28;3020;-54
2023/09/01 01:54:48;;;;;;;;;;;;;;;;;;1042078;28;4024;-55
2023/09/01 01:55:18;;;;;;;;;;;;;;;;;;1037099;28;3099;-54
2023/09/01 01:55:50;;;;;;;;;;;;;;;;;;1036712;28;3935;-52
2023/09/01 01:56:21;;;;;;;;;;;;;;;;;;1038682;28;1682;-51
2023/09/01 01:56:52;;;;;;;;;;;;;;;;;;1038239;28;4066;-49
2023/09/01 01:57:23;;;;;;;;;;;;;;;;;;1041136;28;3079;-52
2023/09/01 01:57:54;;;;;;;;;;;;;;;;;;1041682;28;3885;-51
2023/09/01 01:58:24;;;;;;;;;;;;;;;;;;1042122;28;3944;-53
2023/09/01 01:58:54;;;;;;;;;;;;;;;;;;1042976;28;3097;-56
2023/09/01 01:59:25;;;;;;;;;;;;;;;;;;1041686;28;4042;-48
2023/09/01 01:59:55;;;;;;;;;;;;;;;;;;1043560;28;2932;-52
2023/09/01 02:00:27;;;;;;;;;;;;;;;;;;1040956;28;3959;-54
2023/09/01 02:00:58;;;;;;;;;;;;;;;;;;1043622;28;1677;-52
2023/09/01 02:01:28;;;;;;;;;;;;;;;;;;1042355;28;4443;-54
2023/09/01 02:01:58;;;;;;;;;;;;;;;;;;1048088;28;1673;-55
2023/09/01 02:02:29;;;;;;;;;;;;;;;;;;1042761;28;3804;-55
2023/09/01 02:02:59;;;;;;;;;;;;;;;;;;1047559;28;3075;-54
2023/09/01 02:03:29;;;;;;;;;;;;;;;;;;1046524;28;4241;-58
2023/09/01 02:03:59;;;;;;;;;;;;;;;;;;1041692;28;3087;-55
2023/09/01 02:04:29;;;;;;;;;;;;;;;;;;1040264;28;4137;-55
2023/09/01 02:05:00;;;;;;;;;;;;;;;;;;1042235;28;3186;-54
2023/09/01 02:05:30;;;;;;;;;;;;;;;;;;1042398;28;3931;-54
2023/09/01 02:06:00;;;;;;;;;;;;;;;;;;1042114;28;2844;-51
2023/09/01 02:06:31;;;;;;;;;;;;;;;;;;1041911;28;4407;-51
2023/09/01 02:07:05;;;;;;;;;;;;;;;;;;1042891;28;1818;-53
2023/09/01 02:07:35;;;;;;;;;;;;;;;;;;1043021;28;4052;-55
2023/09/01 02:08:05;;;;;;;;;;;;;;;;;;1042270;28;3077;-50
2023/09/01 02:08:36;;;;;;;;;;;;;;;;;;1042765;28;4060;-50
2023/09/01 02:09:09;;;;;;;;;;;;;;;;;;1041923;28;3004;-56
2023/09/01 02:09:39;;;;;;;;;;;;;;;;;;1043154;28;4056;-50
2023/09/01 02:10:10;;;;;;;;;;;;;;;;;;1039538;28;3066;-52
2023/09/01 02:10:40;;;;;;;;;;;;;;;;;;1042329;28;3771;-56
2023/09/01 02:11:10;;;;;;;;;;;;;;;;;;1041868;28;3090;-54
2023/09/01 02:11:40;;;;;;;;;;;;;;;;;;1042681;28;4054;-54
2023/09/01 02:12:11;;;;;;;;;;;;;;;;;;1038787;28;3118;-54
2023/09/01 02:12:41;;;;;;;;;;;;;;;;;;1038750;28;3910;-54
2023/09/01 02:13:11;;;;;;;;;;;;;;;;;;1038249;28;3170;-50
2023/09/01 02:13:42;;;;;;;;;;;;;;;;;;1038717;28;3900;-54
2023/09/01 02:14:12;;;;;;;;;;;;;;;;;;1043825;28;2967;-55
2023/09/01 02:14:42;;;;;;;;;;;;;;;;;;1039787;28;3839;-52
2023/09/01 02:15:13;;;;;;;;;;;;;;;;;;1040394;28;3032;-57
2023/09/01 02:15:50;;;;;;;;;;;;;;;;;;1041057;28;4126;-54
2023/09/01 02:16:23;;;;;;;;;;;;;;;;;;1041394;28;3032;-55
2023/09/01 02:16:53;;;;;;;;;;;;;;;;;;1039121;28;3939;-54
2023/09/01 02:17:23;;;;;;;;;;;;;;;;;;1040809;28;2957;-55
2023/09/01 02:17:54;;;;;;;;;;;;;;;;;;1042706;28;3839;-54
2023/09/01 02:18:25;;;;;;;;;;;;;;;;;;1041038;28;3987;-53
2023/09/01 02:18:56;;;;;;;;;;;;;;;;;;1043299;28;1815;-52
2023/09/01 02:19:29;;;;;;;;;;;;;;;;;;1039917;28;4035;-56
2023/09/01 02:19:59;;;;;;;;;;;;;;;;;;1040295;28;3821;-55
2023/09/01 02:20:34;;;;;;;;;;;;;;;;;;1039643;28;3765;-56
2023/09/01 02:21:05;;;;;;;;;;;;;;;;;;1040587;28;3464;-56
2023/09/01 02:21:35;;;;;;;;;;;;;;;;;;1041533;28;4039;-56
2023/09/01 02:22:05;;;;;;;;;;;;;;;;;;1041248;28;3351;-54
2023/09/01 02:22:36;;;;;;;;;;;;;;;;;;1042075;28;4100;-53
2023/09/01 02:23:06;;;;;;;;;;;;;;;;;;1043352;28;1741;-54
2023/09/01 02:23:36;;;;;;;;;;;;;;;;;;1042573;28;3945;-53
2023/09/01 02:24:06;;;;;;;;;;;;;;;;;;1041384;28;3012;-54
2023/09/01 02:24:37;;;;;;;;;;;;;;;;;;1042375;28;3850;-51
2023/09/01 02:25:08;;;;;;;;;;;;;;;;;;1041640;28;3105;-53
2023/09/01 02:25:38;;;;;;;;;;;;;;;;;;1042276;28;3782;-53
2023/09/01 02:26:09;;;;;;;;;;;;;;;;;;1042299;28;3029;-51
2023/09/01 02:26:39;;;;;;;;;;;;;;;;;;1041749;28;3929;-52
2023/09/01 02:27:09;;;;;;;;;;;;;;;;;;1041740;28;3156;-51
2023/09/01 02:27:40;;;;;;;;;;;;;;;;;;1042901;28;3770;-53
2023/09/01 02:28:11;;;;;;;;;;;;;;;;;;1040371;28;3387;-54
2023/09/01 02:28:41;;;;;;;;;;;;;;;;;;1042056;28;4364;-54
2023/09/01 02:29:11;;;;;;;;;;;;;;;;;;1040800;28;3609;-55
2023/09/01 02:29:42;;;;;;;;;;;;;;;;;;1042484;28;3849;-53
2023/09/01 02:30:13;;;;;;;;;;;;;;;;;;1039142;28;3227;-50
2023/09/01 02:30:43;;;;;;;;;;;;;;;;;;1041962;28;4365;-56
2023/09/01 02:31:14;;;;;;;;;;;;;;;;;;1045541;28;3424;-54
2023/09/01 02:31:44;;;;;;;;;;;;;;;;;;1044981;28;3952;-52
2023/09/01 02:32:14;;;;;;;;;;;;;;;;;;1044432;28;3175;-55
2023/09/01 02:32:45;;;;;;;;;;;;;;;;;;1042526;28;3845;-54
2023/09/01 02:33:15;;;;;;;;;;;;;;;;;;1038481;28;3062;-54
2023/09/01 02:33:45;;;;;;;;;;;;;;;;;;1038203;28;4014;-48
2023/09/01 02:34:15;;;;;;;;;;;;;;;;;;1037618;28;3061;-51
2023/09/01 02:34:46;;;;;;;;;;;;;;;;;;1040920;28;3945;-54
2023/09/01 02:35:16;;;;;;;;;;;;;;;;;;1043505;28;1765;-54
2023/09/01 02:35:47;;;;;;;;;;;;;;;;;;1040835;28;3830;-57
2023/09/01 02:36:28;;;;;;;;;;;;;;;;;;1041617;28;3045;-50
2023/09/01 02:36:59;;;;;;;;;;;;;;;;;;1042402;28;4037;-49
2023/09/01 02:37:29;;;;;;;;;;;;;;;;;;1042532;28;4233;-53
2023/09/01 02:38:00;;;;;;;;;;;;;;;;;;1040937;28;3077;-57
2023/09/01 02:38:30;;;;;;;;;;;;;;;;;;1040767;28;3947;-50
2023/09/01 02:39:01;;;;;;;;;;;;;;;;;;1043261;28;1740;-58
2023/09/01 02:39:31;;;;;;;;;;;;;;;;;;1040449;28;4210;-53
2023/09/01 02:40:10;;;;;;;;;;;;;;;;;;1042058;28;2745;-54
2023/09/01 02:40:40;;;;;;;;;;;;;;;;;;1042518;28;3762;-55
2023/09/01 02:41:10;;;;;;;;;;;;;;;;;;1043161;28;1678;-57
2023/09/01 02:41:41;;;;;;;;;;;;;;;;;;1040508;28;4204;-54
2023/09/01 02:42:11;;;;;;;;;;;;;;;;;;1041388;28;3030;-56
2023/09/01 02:42:41;;;;;;;;;;;;;;;;;;1042251;28;3974;-51
2023/09/01 02:43:12;;;;;;;;;;;;;;;;;;1042025;28;2985;-49
2023/09/01 02:43:42;;;;;;;;;;;;;;;;;;1041728;28;4141;-54
2023/09/01 02:44:12;;;;;;;;;;;;;;;;;;1041885;28;3092;-54
2023/09/01 02:44:42;;;;;;;;;;;;;;;;;;1041112;28;3943;-53
2023/09/01 02:45:13;;;;;;;;;;;;;;;;;;1043129;28;1590;-55
2023/09/01 02:45:44;;;;;;;;;;;;;;;;;;1041792;28;4002;-56
2023/09/01 02:46:14;;;;;;;;;;;;;;;;;;1041015;28;3042;-57
2023/09/01 02:46:44;;;;;;;;;;;;;;;;;;1042371;28;4064;-57
2023/09/01 02:47:15;;;;;;;;;;;;;;;;;;1040904;28;3354;-52
2023/09/01 02:47:45;;;;;;;;;;;;;;;;;;1046193;28;4039;-53
2023/09/01 02:48:15;;;;;;;;;;;;;;;;;;1046173;28;3189;-53
2023/09/01 02:48:46;;;;;;;;;;;;;;;;;;1047139;28;3922;-56
2023/09/01 02:49:16;;;;;;;;;;;;;;;;;;1048461;28;1621;-55
2023/09/01 02:49:46;;;;;;;;;;;;;;;;;;1041342;28;4952;-55
2023/09/01 02:50:16;;;;;;;;;;;;;;;;;;1041373;28;3526;-55
2023/09/01 02:50:47;;;;;;;;;;;;;;;;;;1041421;28;3877;-55
2023/09/01 02:51:17;;;;;;;;;;;;;;;;;;1036150;28;3055;-55
2023/09/01 02:51:48;;;;;;;;;;;;;;;;;;1039150;28;3972;-54
2023/09/01 02:52:18;;;;;;;;;;;;;;;;;;1038950;28;1499;-55
2023/09/01 02:52:49;;;;;;;;;;;;;;;;;;1038038;28;3724;-50
2023/09/01 02:53:19;;;;;;;;;;;;;;;;;;1041151;28;3053;-55
2023/09/01 02:53:49;;;;;;;;;;;;;;;;;;1040305;28;3716;-53
2023/09/01 02:54:19;;;;;;;;;;;;;;;;;;1041604;28;3215;-52
2023/09/01 02:54:50;;;;;;;;;;;;;;;;;;1042536;28;4421;-53
2023/09/01 02:55:20;;;;;;;;;;;;;;;;;;1042796;28;1743;-51
2023/09/01 02:55:51;;;;;;;;;;;;;;;;;;1040840;28;4164;-49
2023/09/01 02:56:21;;;;;;;;;;;;;;;;;;1039870;28;2976;-51
2023/09/01 02:56:51;;;;;;;;;;;;;;;;;;1040370;28;4159;-55
2023/09/01 02:57:22;;;;;;;;;;;;;;;;;;1048852;28;3084;-56
2023/09/01 02:57:52;;;;;;;;;;;;;;;;;;1045643;28;3970;-57
2023/09/01 02:58:22;;;;;;;;;;;;;;;;;;1045866;28;3208;-55
2023/09/01 02:58:52;;;;;;;;;;;;;;;;;;1043690;28;3999;-54
2023/09/01 02:59:23;;;;;;;;;;;;;;;;;;1041408;28;3574;-53
2023/09/01 02:59:53;;;;;;;;;;;;;;;;;;1042213;28;4331;-54
2023/09/01 03:00:23;;;;;;;;;;;;;;;;;;1040868;28;3164;-50
2023/09/01 03:00:54;;;;;;;;;;;;;;;;;;1041586;28;3705;-53
2023/09/01 03:01:24;;;;;;;;;;;;;;;;;;1040736;28;3951;-56
2023/09/01 03:01:54;;;;;;;;;;;;;;;;;;1042710;28;2532;-53
2023/09/01 03:02:24;;;;;;;;;;;;;;;;;;1041685;28;4613;-53
2023/09/01 03:02:55;;;;;;;;;;;;;;;;;;1042193;28;3311;-59
2023/09/01 03:03:25;;;;;;;;;;;;;;;;;;1041784;28;3879;-53
2023/09/01 03:03:55;;;;;;;;;;;;;;;;;;1041139;28;3280;-52
2023/09/01 03:04:25;;;;;;;;;;;;;;;;;;1041367;28;5072;-55
2023/09/01 03:04:56;;;;;;;;;;;;;;;;;;1040245;28;2929;-57
2023/09/01 03:05:27;;;;;;;;;;;;;;;;;;1038899;28;3826;-50
2023/09/01 03:05:57;;;;;;;;;;;;;;;;;;1042783;28;3070;-52
2023/09/01 03:06:28;;;;;;;;;;;;;;;;;;1041615;28;3967;-54
2023/09/01 03:06:58;;;;;;;;;;;;;;;;;;1041063;28;3050;-56
2023/09/01 03:07:28;;;;;;;;;;;;;;;;;;1041507;28;4010;-53
2023/09/01 03:07:58;;;;;;;;;;;;;;;;;;1042368;28;1620;-55
2023/09/01 03:08:29;;;;;;;;;;;;;;;;;;1041379;28;4306;-53
2023/09/01 03:08:59;;;;;;;;;;;;;;;;;;1036641;28;3072;-55
2023/09/01 03:09:29;;;;;;;;;;;;;;;;;;1036018;28;3871;-50
2023/09/01 03:09:59;;;;;;;;;;;;;;;;;;1038819;28;1760;-57
2023/09/01 03:10:30;;;;;;;;;;;;;;;;;;1037969;28;3951;-56
2023/09/01 03:11:00;;;;;;;;;;;;;;;;;;1037949;28;3347;-55
2023/09/01 03:11:31;;;;;;;;;;;;;;;;;;1036522;28;3831;-57
2023/09/01 03:12:01;;;;;;;;;;;;;;;;;;1036106;28;3191;-56
2023/09/01 03:12:33;;;;;;;;;;;;;;;;;;1037005;28;4023;-54
2023/09/01 03:13:04;;;;;;;;;;;;;;;;;;1039276;28;1403;-51
2023/09/01 03:13:35;;;;;;;;;;;;;;;;;;1036949;28;4368;-55
2023/09/01 03:14:05;;;;;;;;;;;;;;;;;;1037929;28;3301;-49
2023/09/01 03:14:35;;;;;;;;;;;;;;;;;;1036838;28;4092;-51
2023/09/01 03:15:06;;;;;;;;;;;;;;;;;;1036991;28;3117;-54
2023/09/01 03:15:37;;;;;;;;;;;;;;;;;;1037571;28;3850;-51
2023/09/01 03:16:08;;;;;;;;;;;;;;;;;;1037137;28;3070;-53
2023/09/01 03:16:38;;;;;;;;;;;;;;;;;;1036772;28;4220;-52
2023/09/01 03:17:08;;;;;;;;;;;;;;;;;;1036268;28;3090;-52
2023/09/01 03:17:38;;;;;;;;;;;;;;;;;;1037151;28;3947;-52
2023/09/01 03:18:11;;;;;;;;;;;;;;;;;;1037725;28;3024;-55
2023/09/01 03:18:41;;;;;;;;;;;;;;;;;;1037352;28;4047;-55
2023/09/01 03:19:11;;;;;;;;;;;;;;;;;;1036843;28;2978;-56
2023/09/01 03:19:41;;;;;;;;;;;;;;;;;;1038629;28;3995;-54
2023/09/01 03:20:12;;;;;;;;;;;;;;;;;;1038299;28;1720;-53
2023/09/01 03:20:42;;;;;;;;;;;;;;;;;;1037144;28;3794;-52
2023/09/01 03:21:13;;;;;;;;;;;;;;;;;;1038066;28;3109;-54
2023/09/01 03:21:43;;;;;;;;;;;;;;;;;;1038738;28;4012;-55
2023/09/01 03:22:13;;;;;;;;;;;;;;;;;;1038634;28;3451;-54
2023/09/01 03:22:44;;;;;;;;;;;;;;;;;;1037008;28;4373;-51
2023/09/01 03:23:14;;;;;;;;;;;;;;;;;;1036986;28;3110;-58
2023/09/01 03:23:45;;;;;;;;;;;;;;;;;;1037152;28;4124;-52
2023/09/01 03:24:15;;;;;;;;;;;;;;;;;;1038398;28;2725;-52
2023/09/01 03:24:45;;;;;;;;;;;;;;;;;;1038297;28;4508;-51
2023/09/01 03:25:17;;;;;;;;;;;;;;;;;;1038267;28;2879;-55
2023/09/01 03:25:54;;;;;;;;;;;;;;;;;;1037194;28;3946;-56
2023/09/01 03:26:25;;;;;;;;;;;;;;;;;;1036992;28;3968;-55
2023/09/01 03:26:55;;;;;;;;;;;;;;;;;;1035330;28;3293;-53
2023/09/01 03:27:25;;;;;;;;;;;;;;;;;;1037694;28;4269;-50
2023/09/01 03:27:55;;;;;;;;;;;;;;;;;;1038728;28;1691;-48
2023/09/01 03:28:27;;;;;;;;;;;;;;;;;;1038700;28;4020;-54
2023/09/01 03:28:57;;;;;;;;;;;;;;;;;;1036489;28;3008;-51
2023/09/01 03:29:27;;;;;;;;;;;;;;;;;;1035019;28;3909;-51
2023/09/01 03:29:58;;;;;;;;;;;;;;;;;;1036564;28;3364;-51
2023/09/01 03:30:28;;;;;;;;;;;;;;;;;;1037228;28;4221;-55
2023/09/01 03:30:58;;;;;;;;;;;;;;;;;;1037174;28;3096;-53
2023/09/01 03:31:30;;;;;;;;;;;;;;;;;;1037187;28;3992;-54
2023/09/01 03:32:01;;;;;;;;;;;;;;;;;;1038443;28;1672;-51
2023/09/01 03:32:31;;;;;;;;;;;;;;;;;;1036865;28;3944;-54
2023/09/01 03:33:02;;;;;;;;;;;;;;;;;;1035817;28;3125;-56
2023/09/01 03:33:36;;;;;;;;;;;;;;;;;;1037457;28;4045;-52
2023/09/01 03:34:07;;;;;;;;;;;;;;;;;;1037910;28;3388;-52
2023/09/01 03:34:37;;;;;;;;;;;;;;;;;;1037364;28;4336;-49
2023/09/01 03:35:07;;;;;;;;;;;;;;;;;;1037985;28;3368;-53
2023/09/01 03:35:38;;;;;;;;;;;;;;;;;;1045405;28;3850;-53
2023/09/01 03:36:08;;;;;;;;;;;;;;;;;;1046661;28;1757;-53
2023/09/01 03:36:38;;;;;;;;;;;;;;;;;;1044834;28;3929;-54
2023/09/01 03:37:12;;;;;;;;;;;;;;;;;;1043742;28;3094;-52
2023/09/01 03:37:42;;;;;;;;;;;;;;;;;;1036187;28;4069;-53
2023/09/01 03:38:12;;;;;;;;;;;;;;;;;;1036881;28;3456;-53
2023/09/01 03:38:42;;;;;;;;;;;;;;;;;;1037218;28;4094;-55